createdAt,value
2023-04-23T00:02:17.043Z,47.10
2023-04-23T00:04:50.692Z,47.08
2023-04-23T00:07:22.150Z,47.17
2023-04-23T00:09:53.166Z,47.11
2023-04-23T00:12:21.242Z,47.16
2023-04-23T00:14:49.442Z,47.24
2023-04-23T00:17:17.346Z,47.25
2023-04-23T00:19:46.394Z,47.30
2023-04-23T00:22:14.730Z,47.34
2023-04-23T00:24:43.388Z,47.30
2023-04-23T00:27:11.953Z,47.33
2023-04-23T00:29:40.956Z,47.37
2023-04-23T00:32:09.093Z,47.33
2023-04-23T00:34:37.131Z,47.36
2023-04-23T00:37:07.124Z,47.45
2023-04-23T00:39:37.656Z,47.54
2023-04-23T00:42:12.690Z,47.50
2023-04-23T00:44:42.078Z,47.52
2023-04-23T00:47:12.244Z,47.58
2023-04-23T00:49:41.937Z,47.62
2023-04-23T00:52:09.959Z,47.62
2023-04-23T00:54:37.915Z,47.73
2023-04-23T00:57:08.121Z,47.74
2023-04-23T00:59:36.611Z,47.74
2023-04-23T01:02:04.988Z,47.73
2023-04-23T01:04:33.333Z,47.79
2023-04-23T01:07:01.954Z,47.80
2023-04-23T01:09:30.027Z,47.86
2023-04-23T01:11:58.503Z,47.99
2023-04-23T01:14:26.696Z,48.01
2023-04-23T01:16:55.035Z,48.00
2023-04-23T01:19:23.154Z,48.00
2023-04-23T01:21:51.539Z,48.11
2023-04-23T01:24:19.514Z,48.16
2023-04-23T01:26:47.610Z,48.22
2023-04-23T01:29:16.234Z,48.23
2023-04-23T01:31:45.175Z,48.25
2023-04-23T01:34:14.062Z,48.30
2023-04-23T01:36:42.454Z,48.31
2023-04-23T01:39:10.446Z,48.43
2023-04-23T01:41:39.316Z,48.43
2023-04-23T01:44:07.188Z,48.47
2023-04-23T01:46:35.170Z,48.52
2023-04-23T01:49:03.244Z,48.62
2023-04-23T01:51:31.313Z,48.67
2023-04-23T01:53:59.304Z,48.69
2023-04-23T01:56:28.410Z,48.71
2023-04-23T01:58:56.883Z,48.70
2023-04-23T02:01:24.786Z,48.86
2023-04-23T02:03:53.116Z,48.93
2023-04-23T02:06:21.578Z,49.05
2023-04-23T02:08:50.005Z,49.12
2023-04-23T02:11:18.081Z,49.17
2023-04-23T02:13:46.157Z,49.20
2023-04-23T02:16:14.359Z,49.30
2023-04-23T02:18:42.617Z,49.51
2023-04-23T02:21:11.519Z,49.45
2023-04-23T02:23:39.689Z,49.45
2023-04-23T02:26:08.179Z,49.52
2023-04-23T02:28:36.153Z,49.49
2023-04-23T02:31:04.420Z,49.56
2023-04-23T02:33:32.410Z,49.61
2023-04-23T02:36:00.377Z,49.59
2023-04-23T02:38:28.462Z,49.62
2023-04-23T02:40:56.644Z,49.73
2023-04-23T02:43:24.720Z,49.70
2023-04-23T02:45:52.793Z,49.75
2023-04-23T02:48:22.507Z,49.73
2023-04-23T02:50:51.192Z,49.84
2023-04-23T02:53:19.062Z,49.81
2023-04-23T02:55:46.936Z,49.84
2023-04-23T02:58:15.017Z,49.87
2023-04-23T03:00:43.874Z,49.80
2023-04-23T03:03:12.818Z,49.82
2023-04-23T03:05:41.095Z,49.86
2023-04-23T03:08:09.474Z,49.92
2023-04-23T03:10:37.538Z,49.96
2023-04-23T03:13:06.328Z,50.13
2023-04-23T03:15:34.408Z,50.05
2023-04-23T03:18:04.671Z,50.20
2023-04-23T03:20:33.143Z,50.15
2023-04-23T03:23:01.308Z,50.12
2023-04-23T03:25:29.385Z,50.15
2023-04-23T03:27:57.791Z,50.19
2023-04-23T03:30:26.667Z,50.30
2023-04-23T03:32:58.079Z,50.28
2023-04-23T03:35:26.727Z,50.34
2023-04-23T03:37:57.641Z,50.29
2023-04-23T03:40:26.130Z,50.34
2023-04-23T03:42:58.196Z,50.41
2023-04-23T03:45:41.216Z,50.40
2023-04-23T03:48:09.293Z,50.46
2023-04-23T03:50:40.535Z,50.48
2023-04-23T03:53:28.769Z,50.59
2023-04-23T03:56:15.690Z,50.57
2023-04-23T03:58:50.617Z,50.60
2023-04-23T04:01:18.901Z,50.63
2023-04-23T04:03:47.063Z,50.65
2023-04-23T04:06:15.268Z,50.72
2023-04-23T04:08:43.236Z,50.82
2023-04-23T04:11:11.506Z,50.76
2023-04-23T04:13:39.697Z,50.73
2023-04-23T04:16:08.312Z,50.77
2023-04-23T04:18:36.350Z,50.78
2023-04-23T04:21:04.364Z,50.86
2023-04-23T04:23:33.740Z,50.86
2023-04-23T04:26:02.637Z,50.87
2023-04-23T04:28:30.601Z,50.97
2023-04-23T04:30:58.655Z,51.00
2023-04-23T04:33:26.840Z,51.01
2023-04-23T04:35:55.110Z,51.00
2023-04-23T04:38:23.121Z,50.98
2023-04-23T04:40:50.998Z,51.04
2023-04-23T04:43:19.110Z,51.01
2023-04-23T04:45:47.037Z,51.04
2023-04-23T04:48:15.021Z,51.09
2023-04-23T04:50:43.192Z,51.07
2023-04-23T04:53:11.362Z,51.10
2023-04-23T04:55:39.440Z,51.13
2023-04-23T04:58:07.826Z,51.13
2023-04-23T05:00:35.755Z,51.13
2023-04-23T05:03:04.317Z,51.18
2023-04-23T05:05:33.301Z,51.16
2023-04-23T05:08:04.337Z,51.17
2023-04-23T05:10:32.303Z,51.23
2023-04-23T05:13:00.898Z,51.19
2023-04-23T05:15:29.234Z,51.29
2023-04-23T05:17:57.431Z,51.27
2023-04-23T05:20:25.629Z,51.30
2023-04-23T05:22:53.595Z,51.36
2023-04-23T05:25:21.586Z,51.40
2023-04-23T05:27:49.660Z,51.39
2023-04-23T05:30:18.046Z,51.46
2023-04-23T05:32:46.235Z,51.40
2023-04-23T05:35:14.140Z,51.48
2023-04-23T05:37:42.191Z,51.47
2023-04-23T05:40:10.657Z,51.50
2023-04-23T05:42:38.752Z,51.53
2023-04-23T05:45:08.852Z,51.63
2023-04-23T05:47:37.497Z,51.53
2023-04-23T05:50:06.612Z,51.54
2023-04-23T05:52:37.492Z,51.62
2023-04-23T05:55:06.805Z,51.61
2023-04-23T05:57:34.856Z,51.56
2023-04-23T06:00:06.056Z,51.61
2023-04-23T06:02:40.851Z,51.61
2023-04-23T06:05:09.566Z,51.57
2023-04-23T06:07:37.802Z,51.57
2023-04-23T06:10:06.400Z,51.66
2023-04-23T06:12:34.456Z,51.70
2023-04-23T06:15:02.573Z,51.73
2023-04-23T06:17:30.739Z,51.82
2023-04-23T06:19:59.007Z,51.77
2023-04-23T06:22:27.044Z,51.79
2023-04-23T06:24:55.194Z,51.87
2023-04-23T06:27:23.087Z,51.93
2023-04-23T06:29:51.934Z,51.95
2023-04-23T06:32:20.881Z,52.05
2023-04-23T06:35:00.259Z,52.11
2023-04-23T06:37:30.875Z,52.13
2023-04-23T06:39:59.590Z,52.16
2023-04-23T06:42:27.849Z,52.20
2023-04-23T06:45:17.114Z,52.17
2023-04-23T06:47:45.423Z,52.21
2023-04-23T06:50:13.466Z,52.24
2023-04-23T06:52:41.961Z,52.20
2023-04-23T06:55:10.352Z,52.24
2023-04-23T06:57:38.215Z,52.23
2023-04-23T07:00:09.464Z,52.16
2023-04-23T07:02:39.713Z,52.24
2023-04-23T07:05:10.632Z,52.24
2023-04-23T07:07:38.628Z,52.15
2023-04-23T07:10:07.297Z,52.26
2023-04-23T07:12:35.213Z,52.20
2023-04-23T07:15:03.817Z,52.20
2023-04-23T07:17:31.980Z,52.24
2023-04-23T07:20:00.269Z,52.24
2023-04-23T07:22:30.446Z,52.25
2023-04-23T07:24:58.854Z,52.23
2023-04-23T07:27:26.915Z,52.20
2023-04-23T07:29:55.000Z,52.16
2023-04-23T07:32:23.966Z,52.22
2023-04-23T07:34:52.634Z,52.17
2023-04-23T07:37:21.749Z,52.24
2023-04-23T07:39:50.103Z,52.17
2023-04-23T07:42:18.113Z,52.22
2023-04-23T07:44:46.116Z,52.15
2023-04-23T07:47:14.085Z,52.13
2023-04-23T07:49:42.452Z,52.19
2023-04-23T07:52:10.784Z,52.13
2023-04-23T07:54:38.935Z,52.16
2023-04-23T07:57:07.030Z,52.16
2023-04-23T07:59:34.990Z,52.22
2023-04-23T08:02:03.061Z,52.33
2023-04-23T08:04:31.499Z,52.42
2023-04-23T08:06:59.638Z,52.49
2023-04-23T08:09:27.533Z,52.57
2023-04-23T08:11:55.589Z,52.65
2023-04-23T08:14:23.556Z,52.71
2023-04-23T08:16:51.520Z,52.59
2023-04-23T08:19:19.404Z,52.68
2023-04-23T08:21:47.684Z,52.62
2023-04-23T08:24:15.655Z,52.62
2023-04-23T08:26:43.830Z,52.54
2023-04-23T08:29:11.907Z,52.58
2023-04-23T08:31:40.003Z,52.39
2023-04-23T08:34:07.895Z,52.37
2023-04-23T08:36:36.034Z,52.19
2023-04-23T08:39:04.423Z,52.10
2023-04-23T08:41:35.873Z,52.14
2023-04-23T08:44:24.107Z,52.06
2023-04-23T08:46:53.664Z,52.09
2023-04-23T08:49:21.999Z,52.03
2023-04-23T08:51:52.967Z,52.01
2023-04-23T08:54:32.373Z,51.96
2023-04-23T08:57:01.073Z,52.04
2023-04-23T08:59:30.573Z,51.85
2023-04-23T09:02:01.124Z,51.77
2023-04-23T09:04:31.706Z,51.71
2023-04-23T09:07:00.379Z,51.67
2023-04-23T09:09:29.337Z,51.80
2023-04-23T09:11:57.506Z,51.70
2023-04-23T09:14:25.791Z,51.69
2023-04-23T09:16:54.254Z,51.56
2023-04-23T09:19:23.063Z,51.56
2023-04-23T09:21:51.566Z,51.53
2023-04-23T09:24:22.074Z,51.49
2023-04-23T09:26:51.183Z,51.41
2023-04-23T09:29:20.591Z,51.38
2023-04-23T09:31:52.090Z,51.43
2023-04-23T09:34:20.967Z,51.29
2023-04-23T09:36:50.865Z,51.21
2023-04-23T09:39:19.808Z,51.13
2023-04-23T09:41:48.145Z,51.10
2023-04-23T09:44:19.803Z,51.05
2023-04-23T09:46:48.209Z,50.96
2023-04-23T09:49:16.461Z,50.99
2023-04-23T09:51:46.427Z,50.97
2023-04-23T09:54:25.966Z,50.98
2023-04-23T09:56:57.391Z,50.90
2023-04-23T09:59:32.475Z,50.92
2023-04-23T10:02:08.143Z,50.85
2023-04-23T10:04:36.534Z,50.88
2023-04-23T10:09:42.244Z,50.74
2023-04-23T10:12:24.296Z,50.69
2023-04-23T10:14:59.864Z,50.53
2023-04-23T10:17:28.198Z,50.53
2023-04-23T10:19:57.342Z,50.48
2023-04-23T10:22:27.071Z,50.49
2023-04-23T10:24:57.380Z,50.42
2023-04-23T10:27:40.390Z,50.39
2023-04-23T10:30:17.236Z,50.39
2023-04-23T10:32:48.587Z,50.35
2023-04-23T10:35:17.229Z,50.33
2023-04-23T10:37:47.238Z,50.36
2023-04-23T10:40:18.927Z,50.32
2023-04-23T10:42:47.491Z,50.29
2023-04-23T10:45:24.108Z,50.30
2023-04-23T10:47:56.144Z,50.28
2023-04-23T10:50:26.502Z,50.26
2023-04-23T10:52:56.173Z,50.25
2023-04-23T10:55:25.712Z,50.05
2023-04-23T10:58:04.239Z,49.92
2023-04-23T11:00:41.599Z,49.82
2023-04-23T11:03:28.289Z,49.84
2023-04-23T11:05:56.454Z,49.61
2023-04-23T11:08:24.653Z,49.32
2023-04-23T11:10:57.139Z,48.86
2023-04-23T11:13:29.288Z,48.69
2023-04-23T11:16:29.872Z,48.60
2023-04-23T11:19:03.690Z,48.11
2023-04-23T11:21:50.414Z,48.17
2023-04-23T11:24:18.393Z,48.13
2023-04-23T11:26:47.592Z,47.96
2023-04-23T11:29:15.981Z,47.73
2023-04-23T11:31:58.492Z,47.02
2023-04-23T11:34:30.511Z,47.00
2023-04-23T11:36:59.338Z,46.62
2023-04-23T11:39:27.548Z,46.59
2023-04-23T11:41:55.503Z,46.64
2023-04-23T11:44:23.669Z,46.62
2023-04-23T11:46:51.758Z,46.47
2023-04-23T11:49:20.542Z,46.54
2023-04-23T11:51:48.529Z,46.63
2023-04-23T11:54:16.620Z,46.71
2023-04-23T11:56:45.068Z,46.85
2023-04-23T11:59:13.051Z,46.92
2023-04-23T12:01:45.943Z,46.74
2023-04-23T12:04:15.137Z,46.82
2023-04-23T12:06:45.868Z,46.84
2023-04-23T12:09:14.603Z,46.76
2023-04-23T12:11:43.362Z,46.82
2023-04-23T12:14:12.416Z,46.83
2023-04-23T12:16:45.787Z,46.78
2023-04-23T12:19:14.862Z,46.67
2023-04-23T12:21:54.584Z,46.53
2023-04-23T12:24:26.665Z,46.54
2023-04-23T12:26:56.146Z,46.61
2023-04-23T12:29:24.979Z,46.58
2023-04-23T12:31:53.771Z,46.69
2023-04-23T12:34:21.833Z,46.58
2023-04-23T12:36:54.371Z,46.52
2023-04-23T12:39:32.532Z,46.49
2023-04-23T12:42:01.725Z,46.61
2023-04-23T12:44:30.010Z,46.55
2023-04-23T12:46:59.527Z,46.42
2023-04-23T12:49:29.663Z,46.44
2023-04-23T12:52:01.286Z,46.56
2023-04-23T12:54:39.482Z,46.55
2023-04-23T12:57:08.419Z,46.65
2023-04-23T12:59:36.486Z,46.65
2023-04-23T13:02:05.770Z,46.69
2023-04-23T13:04:34.786Z,46.50
2023-04-23T13:07:03.080Z,46.37
2023-04-23T13:09:31.139Z,46.29
2023-04-23T13:12:00.503Z,46.27
2023-04-23T13:14:29.228Z,46.15
2023-04-23T13:16:58.142Z,45.97
2023-04-23T13:19:26.556Z,45.96
2023-04-23T13:21:54.693Z,45.94
2023-04-23T13:24:22.869Z,45.62
2023-04-23T13:26:50.960Z,45.45
2023-04-23T13:29:19.025Z,45.53
2023-04-23T13:31:47.049Z,45.41
2023-04-23T13:34:15.321Z,44.93
2023-04-23T13:36:43.464Z,44.83
2023-04-23T13:39:14.169Z,44.70
2023-04-23T13:41:42.383Z,44.47
2023-04-23T13:44:10.451Z,44.43
2023-04-23T13:46:40.278Z,44.35
2023-04-23T13:49:08.343Z,44.33
2023-04-23T13:51:36.868Z,43.94
2023-04-23T13:54:04.905Z,43.69
2023-04-23T13:56:33.093Z,43.72
2023-04-23T13:59:17.984Z,43.48
2023-04-23T14:01:50.284Z,43.47
2023-04-23T14:04:18.961Z,43.27
2023-04-23T14:06:46.986Z,42.99
2023-04-23T14:09:14.882Z,43.22
2023-04-23T14:11:43.047Z,42.71
2023-04-23T14:14:11.058Z,42.74
2023-04-23T14:16:39.409Z,42.68
2023-04-23T14:19:07.482Z,42.75
2023-04-23T14:21:36.344Z,42.63
2023-04-23T14:24:19.701Z,42.70
2023-04-23T14:26:50.015Z,42.67
2023-04-23T14:29:29.261Z,42.57
2023-04-23T14:31:57.325Z,42.65
2023-04-23T14:34:25.318Z,42.90
2023-04-23T14:36:53.490Z,42.94
2023-04-23T14:39:26.360Z,42.96
2023-04-23T14:41:54.271Z,42.69
2023-04-23T14:44:29.108Z,42.83
2023-04-23T14:46:57.121Z,42.78
2023-04-23T14:49:25.363Z,42.54
2023-04-23T14:51:58.208Z,42.55
2023-04-23T14:54:26.292Z,42.51
2023-04-23T14:56:54.267Z,42.53
2023-04-23T14:59:23.461Z,42.40
2023-04-23T15:01:51.700Z,42.28
2023-04-23T15:04:19.738Z,42.21
2023-04-23T15:06:48.004Z,42.40
2023-04-23T15:09:15.905Z,42.44
2023-04-23T15:11:44.468Z,42.37
2023-04-23T15:14:21.665Z,42.01
2023-04-23T15:16:50.410Z,42.02
2023-04-23T15:19:19.095Z,42.08
2023-04-23T15:21:47.839Z,42.02
2023-04-23T15:24:16.560Z,42.22
2023-04-23T15:26:45.997Z,42.07
2023-04-23T15:29:14.621Z,42.12
2023-04-23T15:31:42.603Z,42.05
2023-04-23T15:34:12.337Z,42.02
2023-04-23T15:36:40.593Z,42.10
2023-04-23T15:39:09.370Z,42.17
2023-04-23T15:41:40.291Z,42.09
2023-04-23T15:44:12.886Z,42.02
2023-04-23T15:46:40.950Z,42.15
2023-04-23T15:49:09.365Z,42.12
2023-04-23T15:51:37.629Z,42.26
2023-04-23T15:54:08.828Z,42.35
2023-04-23T15:56:37.345Z,42.17
2023-04-23T15:59:06.167Z,42.24
2023-04-23T16:01:34.098Z,42.09
2023-04-23T16:04:10.317Z,42.31
2023-04-23T16:06:40.521Z,42.35
2023-04-23T16:09:08.737Z,42.30
2023-04-23T16:11:38.025Z,42.34
2023-04-23T16:14:06.505Z,42.27
2023-04-23T16:16:34.970Z,42.39
2023-04-23T16:19:03.338Z,42.53
2023-04-23T16:21:32.314Z,42.57
2023-04-23T16:24:00.448Z,42.47
2023-04-23T16:26:29.318Z,42.58
2023-04-23T16:31:28.599Z,42.64
2023-04-23T16:33:56.851Z,42.64
2023-04-23T16:36:24.920Z,42.68
2023-04-23T16:38:53.104Z,42.68
2023-04-23T16:41:20.957Z,42.69
2023-04-23T16:43:48.930Z,42.82
2023-04-23T16:46:17.067Z,42.80
2023-04-23T16:48:45.607Z,42.90
2023-04-23T16:51:13.788Z,42.79
2023-04-23T16:53:41.618Z,42.81
2023-04-23T16:56:09.847Z,42.86
2023-04-23T16:58:37.816Z,42.87
2023-04-23T17:01:05.695Z,42.90
2023-04-23T17:03:34.046Z,42.92
2023-04-23T17:06:10.311Z,42.93
2023-04-23T17:08:38.926Z,42.94
2023-04-23T17:11:07.420Z,42.92
2023-04-23T17:13:35.343Z,43.05
2023-04-23T17:16:03.584Z,43.05
2023-04-23T17:18:31.530Z,43.22
2023-04-23T17:20:59.526Z,43.21
2023-04-23T17:23:27.480Z,43.26
2023-04-23T17:25:55.659Z,43.48
2023-04-23T17:28:23.619Z,43.50
2023-04-23T17:30:52.538Z,43.60
2023-04-23T17:33:21.437Z,43.64
2023-04-23T17:35:52.084Z,43.80
2023-04-23T17:38:21.066Z,43.78
2023-04-23T17:40:49.785Z,43.85
2023-04-23T17:43:18.448Z,43.93
2023-04-23T17:45:47.668Z,44.01
2023-04-23T17:48:16.042Z,44.11
2023-04-23T17:50:47.081Z,44.09
2023-04-23T17:53:15.351Z,44.20
2023-04-23T17:55:43.231Z,44.20
2023-04-23T17:58:11.510Z,44.33
2023-04-23T18:00:41.839Z,44.33
2023-04-23T18:03:10.399Z,44.38
2023-04-23T18:05:38.412Z,44.43
2023-04-23T18:08:07.625Z,44.47
2023-04-23T18:10:35.785Z,44.52
2023-04-23T18:13:05.390Z,44.56
2023-04-23T18:15:33.402Z,44.53
2023-04-23T18:18:01.310Z,44.64
2023-04-23T18:20:30.442Z,44.76
2023-04-23T18:22:58.286Z,44.77
2023-04-23T18:25:26.885Z,44.85
2023-04-23T18:27:54.878Z,44.89
2023-04-23T18:30:25.210Z,44.86
2023-04-23T18:33:08.796Z,44.93
2023-04-23T18:35:36.825Z,44.95
2023-04-23T18:38:07.856Z,45.00
2023-04-23T18:40:35.826Z,45.11
2023-04-23T18:43:03.910Z,45.04
2023-04-23T18:45:31.984Z,45.21
2023-04-23T18:48:25.951Z,45.24
2023-04-23T18:50:57.335Z,45.32
2023-04-23T18:53:25.379Z,45.42
2023-04-23T18:55:53.459Z,45.41
2023-04-23T18:58:23.674Z,45.47
2023-04-23T19:00:51.654Z,45.54
2023-04-23T19:03:26.758Z,45.49
2023-04-23T19:05:55.584Z,45.54
2023-04-23T19:08:28.737Z,45.63
2023-04-23T19:10:57.490Z,45.67
2023-04-23T19:13:25.435Z,45.63
2023-04-23T19:15:53.720Z,45.71
2023-04-23T19:18:22.107Z,45.74
2023-04-23T19:20:51.206Z,45.77
2023-04-23T19:23:19.898Z,45.79
2023-04-23T19:25:48.385Z,45.79
2023-04-23T19:28:16.357Z,45.86
2023-04-23T19:30:44.331Z,45.87
2023-04-23T19:33:12.417Z,45.84
2023-04-23T19:35:40.687Z,45.82
2023-04-23T19:38:09.614Z,45.92
2023-04-23T19:40:37.661Z,45.95
2023-04-23T19:43:05.643Z,45.98
2023-04-23T19:45:33.708Z,46.00
2023-04-23T19:48:04.709Z,46.05
2023-04-23T19:50:33.030Z,46.16
2023-04-23T19:53:01.119Z,46.13
2023-04-23T19:55:29.268Z,46.12
2023-04-23T19:57:57.364Z,46.11
2023-04-23T20:00:26.568Z,46.20
2023-04-23T20:02:55.728Z,46.21
2023-04-23T20:05:23.747Z,46.27
2023-04-23T20:07:51.623Z,46.28
2023-04-23T20:10:19.597Z,46.33
2023-04-23T20:12:47.524Z,46.40
2023-04-23T20:15:15.541Z,46.39
2023-04-23T20:17:43.395Z,46.36
2023-04-23T20:20:11.690Z,46.45
2023-04-23T20:22:39.590Z,46.41
2023-04-23T20:25:08.261Z,46.43
2023-04-23T20:27:36.371Z,46.59
2023-04-23T20:30:05.119Z,46.61
2023-04-23T20:32:33.075Z,46.63
2023-04-23T20:35:01.196Z,46.57
2023-04-23T20:37:29.257Z,46.64
2023-04-23T20:39:58.436Z,46.69
2023-04-23T20:42:29.266Z,46.59
2023-04-23T20:44:57.883Z,46.65
2023-04-23T20:47:26.214Z,46.68
2023-04-23T20:49:54.239Z,46.59
2023-04-23T20:52:22.316Z,46.71
2023-04-23T20:54:50.189Z,46.80
2023-04-23T20:57:18.249Z,46.76
2023-04-23T20:59:46.248Z,46.76
2023-04-23T21:02:15.463Z,46.74
2023-04-23T21:04:43.650Z,46.75
2023-04-23T21:07:11.552Z,46.84
2023-04-23T21:09:39.618Z,46.94
2023-04-23T21:12:07.503Z,46.96
2023-04-23T21:14:36.257Z,46.92
2023-04-23T21:17:04.281Z,46.96
2023-04-23T21:19:32.412Z,47.06
2023-04-23T21:22:00.491Z,47.07
2023-04-23T21:24:28.332Z,47.10
2023-04-23T21:26:56.223Z,47.12
2023-04-23T21:29:26.131Z,47.10
2023-04-23T21:31:54.172Z,47.23
2023-04-23T21:34:22.289Z,47.25
2023-04-23T21:36:50.567Z,47.22
2023-04-23T21:39:18.737Z,47.34
2023-04-23T21:41:47.260Z,47.24
2023-04-23T21:44:15.357Z,47.36
2023-04-23T21:46:44.552Z,47.41
2023-04-23T21:49:13.413Z,47.40
2023-04-23T21:51:41.278Z,47.47
2023-04-23T21:54:09.335Z,47.55
2023-04-23T21:56:37.534Z,47.59
2023-04-23T21:59:05.392Z,47.60
2023-04-23T22:01:36.545Z,47.62
2023-04-23T22:04:05.027Z,47.57
2023-04-23T22:06:34.543Z,47.73
2023-04-23T22:09:02.623Z,47.70
2023-04-23T22:11:31.582Z,47.72
2023-04-23T22:14:00.312Z,47.73
2023-04-23T22:16:29.227Z,47.85
2023-04-23T22:18:57.929Z,47.90
2023-04-23T22:21:26.001Z,47.93
2023-04-23T22:23:54.060Z,48.06
2023-04-23T22:26:22.227Z,47.99
2023-04-23T22:28:50.422Z,48.10
2023-04-23T22:31:18.666Z,48.07
2023-04-23T22:33:46.967Z,48.15
2023-04-23T22:36:14.833Z,48.15
2023-04-23T22:38:42.706Z,48.19
2023-04-23T22:41:10.790Z,48.33
2023-04-23T22:43:39.381Z,48.22
2023-04-23T22:46:07.817Z,48.29
2023-04-23T22:48:37.852Z,48.30
2023-04-23T22:51:06.063Z,48.30
2023-04-23T22:53:33.974Z,48.30
2023-04-23T22:56:02.420Z,48.26
2023-04-23T22:58:30.360Z,48.33
2023-04-23T23:00:58.591Z,48.32
2023-04-23T23:03:26.855Z,48.32
2023-04-23T23:05:55.221Z,48.35
2023-04-23T23:08:23.320Z,48.29
2023-04-23T23:10:51.445Z,48.33
2023-04-23T23:13:19.309Z,48.32
2023-04-23T23:15:47.287Z,48.33
2023-04-23T23:18:15.414Z,48.37
2023-04-23T23:20:45.232Z,48.43
2023-04-23T23:23:13.312Z,48.36
2023-04-23T23:25:41.485Z,48.37
2023-04-23T23:28:09.568Z,48.41
2023-04-23T23:30:37.547Z,48.45
2023-04-23T23:33:05.703Z,48.40
2023-04-23T23:35:33.918Z,48.47
2023-04-23T23:38:01.979Z,48.39
2023-04-23T23:40:29.961Z,48.44
2023-04-23T23:42:57.766Z,48.49
2023-04-23T23:45:25.996Z,48.42
2023-04-23T23:47:54.714Z,48.47
2023-04-23T23:50:22.677Z,48.43
2023-04-23T23:52:51.044Z,48.44
2023-04-23T23:55:19.042Z,48.49
2023-04-23T23:57:46.992Z,48.48
